Time;durP1;ratioP1;P1;durP2;ratioP2;P2;SDS_P1;SDS_P2;PMS_P1;PMS_P2;Temp;Humidity;BMP_temperature;BMP_pressure;BME280_temperature;BME280_humidity;BME280_pressure;Samples;Min_cycle;Max_cycle;Signal;HPM_P1;HPM_P2
2023/05/23 09:46:10;;;;;;;11.38;7.53;;;;;;;;;;7329124;19;20109;-78
2023/05/23 09:48:36;;;;;;;10.57;7.13;;;;;;;;;;7356368;19;20013;-78
2023/05/23 09:51:05;;;;;;;10.05;7.57;;;;;;;;;;7364926;19;20013;-78
2023/05/23 09:53:30;;;;;;;9.50;7.20;;;;;;;;;;7363465;19;20019;-78
2023/05/23 09:55:57;;;;;;;10.93;7.75;;;;;;;;;;7360082;19;19991;-77
2023/05/23 09:58:22;;;;;;;11.45;6.80;;;;;;;;;;7373908;19;19990;-77
2023/05/23 10:00:53;;;;;;;10.43;6.68;;;;;;;;;;7368502;19;20025;-78
2023/05/23 10:03:21;;;;;;;10.60;6.70;;;;;;;;;;7371948;19;20007;-78
2023/05/23 10:05:47;;;;;;;11.93;6.38;;;;;;;;;;7371169;19;20086;-76
2023/05/23 10:08:21;;;;;;;9.82;5.82;;;;;;;;;;7371063;19;20004;-76
2023/05/23 10:10:46;;;;;;;;;;;;;;;;;;7364123;19;20282;-77
2023/05/23 10:13:11;;;;;;;11.30;6.40;;;;;;;;;;7367270;19;19919;-76
2023/05/23 10:15:38;;;;;;;10.57;7.00;;;;;;;;;;7365504;19;20031;-76
2023/05/23 10:18:20;;;;;;;9.85;6.32;;;;;;;;;;7363989;19;20319;-77
2023/05/23 10:20:47;;;;;;;9.40;6.00;;;;;;;;;;7366083;19;20014;-76
2023/05/23 10:23:13;;;;;;;9.07;5.75;;;;;;;;;;7362600;19;20024;-78
2023/05/23 10:25:40;;;;;;;8.10;5.55;;;;;;;;;;7359041;19;20411;-77
2023/05/23 10:28:06;;;;;;;9.40;5.20;;;;;;;;;;7367285;19;20051;-78
2023/05/23 10:30:31;;;;;;;9.50;5.70;;;;;;;;;;7358526;19;20015;-77
2023/05/23 10:32:56;;;;;;;8.77;5.68;;;;;;;;;;7369374;19;20006;-77
2023/05/23 10:35:37;;;;;;;8.15;5.40;;;;;;;;;;7370486;19;20100;-77
2023/05/23 10:38:23;;;;;;;8.73;5.03;;;;;;;;;;7367299;19;20460;-77
2023/05/23 10:40:55;;;;;;;8.80;5.20;;;;;;;;;;7365497;19;20022;-78
2023/05/23 10:43:26;;;;;;;8.00;5.38;;;;;;;;;;7362464;19;20360;-76
2023/05/23 10:45:51;;;;;;;10.20;5.68;;;;;;;;;;7363436;19;20018;-77
2023/05/23 10:48:39;;;;;;;10.82;6.18;;;;;;;;;;7367467;19;20408;-77
2023/05/23 10:51:05;;;;;;;10.07;5.95;;;;;;;;;;7357827;19;20026;-76
2023/05/23 10:53:34;;;;;;;10.10;6.07;;;;;;;;;;7363250;19;20054;-77
2023/05/23 10:56:00;;;;;;;9.32;6.60;;;;;;;;;;7358457;19;20441;-77
2023/05/23 10:58:28;;;;;;;10.05;6.43;;;;;;;;;;7369597;19;19995;-78
2023/05/23 11:00:54;;;;;;;13.40;6.88;;;;;;;;;;7367537;19;20554;-77
2023/05/23 11:03:30;;;;;;;12.50;6.85;;;;;;;;;;7371732;19;20032;-79
2023/05/23 11:05:55;;;;;;;12.95;8.07;;;;;;;;;;7359634;19;20005;-77
2023/05/23 11:08:23;;;;;;;10.90;7.20;;;;;;;;;;7369529;19;20014;-78
2023/05/23 11:10:57;;;;;;;10.98;7.20;;;;;;;;;;7363560;19;20247;-76
2023/05/23 11:13:22;;;;;;;11.38;8.20;;;;;;;;;;7372827;19;20007;-76
2023/05/23 11:15:48;;;;;;;13.52;7.45;;;;;;;;;;7367565;19;20083;-78
2023/05/23 11:18:19;;;;;;;11.52;7.68;;;;;;;;;;7363757;19;20511;-77
2023/05/23 11:20:46;;;;;;;14.88;7.78;;;;;;;;;;7363782;19;20476;-78
2023/05/23 11:23:11;;;;;;;12.88;7.45;;;;;;;;;;7363109;19;20023;-77
2023/05/23 11:25:43;;;;;;;12.48;7.32;;;;;;;;;;7348506;19;20003;-77
2023/05/23 11:28:09;;;;;;;10.75;6.80;;;;;;;;;;7373809;19;20014;-77
2023/05/23 11:30:38;;;;;;;11.30;7.70;;;;;;;;;;7367701;19;20030;-77
2023/05/23 11:33:12;;;;;;;12.85;7.95;;;;;;;;;;7367153;19;19991;-76
2023/05/23 11:35:47;;;;;;;10.05;7.32;;;;;;;;;;7370021;19;20001;-78
2023/05/23 11:38:13;;;;;;;13.52;7.78;;;;;;;;;;7375152;19;20416;-77
2023/05/23 11:40:40;;;;;;;12.55;8.00;;;;;;;;;;7361572;19;20081;-77
2023/05/23 11:43:08;;;;;;;15.93;7.60;;;;;;;;;;7365897;19;19995;-77
2023/05/23 11:45:34;;;;;;;13.68;7.75;;;;;;;;;;7371495;19;20002;-78
2023/05/23 11:48:06;;;;;;;14.88;7.07;;;;;;;;;;7367697;19;19994;-77
2023/05/23 11:50:32;;;;;;;12.30;7.88;;;;;;;;;;7373640;19;20098;-76
2023/05/23 11:52:58;;;;;;;15.32;7.93;;;;;;;;;;7369339;19;19998;-76
2023/05/23 11:55:23;;;;;;;17.15;8.52;;;;;;;;;;7369463;19;20030;-77
2023/05/23 11:57:50;;;;;;;11.73;6.73;;;;;;;;;;7372515;19;20027;-78
2023/05/23 12:00:15;;;;;;;14.02;7.60;;;;;;;;;;7370681;19;20247;-77
2023/05/23 12:02:41;;;;;;;15.45;7.75;;;;;;;;;;7369117;19;20026;-77
2023/05/23 12:05:10;;;;;;;13.77;6.93;;;;;;;;;;7365929;19;20048;-77
2023/05/23 12:07:39;;;;;;;13.23;7.50;;;;;;;;;;7371229;19;20071;-76
2023/05/23 12:10:05;;;;;;;13.93;7.35;;;;;;;;;;7367653;19;20029;-77
2023/05/23 12:12:30;;;;;;;15.38;7.78;;;;;;;;;;7369631;19;20098;-77
2023/05/23 12:14:56;;;;;;;12.30;7.00;;;;;;;;;;7364182;19;20047;-77
2023/05/23 12:17:21;;;;;;;18.85;7.47;;;;;;;;;;7371909;19;20054;-76
2023/05/23 12:19:46;;;;;;;12.87;7.27;;;;;;;;;;7369893;19;20073;-77
2023/05/23 12:22:11;;;;;;;13.73;6.88;;;;;;;;;;7370074;19;20393;-78
2023/05/23 12:24:43;;;;;;;12.80;6.95;;;;;;;;;;7366800;19;20007;-78
2023/05/23 12:27:09;;;;;;;13.02;6.90;;;;;;;;;;7366631;19;20022;-78
2023/05/23 12:29:34;;;;;;;12.95;6.13;;;;;;;;;;7368682;19;20439;-77
2023/05/23 12:32:00;;;;;;;11.23;6.35;;;;;;;;;;7369129;19;20017;-77
2023/05/23 12:34:25;;;;;;;15.00;6.32;;;;;;;;;;7367169;19;20842;-77
2023/05/23 12:36:57;;;;;;;12.50;5.83;;;;;;;;;;7367705;19;20007;-77
2023/05/23 12:39:29;;;;;;;10.38;6.00;;;;;;;;;;7369160;19;20244;-76
2023/05/23 12:41:57;;;;;;;12.25;5.82;;;;;;;;;;7363820;19;20007;-77
2023/05/23 12:44:22;;;;;;;10.23;5.57;;;;;;;;;;7371990;19;20096;-77
2023/05/23 12:46:48;;;;;;;9.10;5.70;;;;;;;;;;7366610;19;20006;-77
2023/05/23 12:49:13;;;;;;;11.85;5.63;;;;;;;;;;7367825;19;20243;-76
2023/05/23 12:51:39;;;;;;;8.70;4.43;;;;;;;;;;7368707;19;19995;-78
2023/05/23 12:54:04;;;;;;;10.57;5.38;;;;;;;;;;7367709;19;20247;-79
2023/05/23 12:56:30;;;;;;;11.02;4.93;;;;;;;;;;7345339;19;20014;-76
2023/05/23 12:58:55;;;;;;;9.10;4.80;;;;;;;;;;7367544;19;20309;-78
2023/05/23 13:01:21;;;;;;;11.90;5.57;;;;;;;;;;7365100;19;20772;-75
2023/05/23 13:03:46;;;;;;;10.95;5.47;;;;;;;;;;7364827;19;20478;-78
2023/05/23 13:06:11;;;;;;;9.95;5.20;;;;;;;;;;7368725;19;19998;-77
2023/05/23 13:08:36;;;;;;;11.05;5.63;;;;;;;;;;7366447;19;20022;-77
2023/05/23 13:11:01;;;;;;;11.87;5.17;;;;;;;;;;7364641;19;20025;-79
2023/05/23 13:13:27;;;;;;;10.43;5.78;;;;;;;;;;7371127;19;20251;-77
2023/05/23 13:15:52;;;;;;;8.27;5.17;;;;;;;;;;7369974;19;20107;-78
2023/05/23 13:18:17;;;;;;;11.57;5.63;;;;;;;;;;7368846;19;20627;-77
2023/05/23 13:20:42;;;;;;;9.83;5.20;;;;;;;;;;7366144;19;20003;-78
2023/05/23 13:23:08;;;;;;;10.40;5.13;;;;;;;;;;7368835;19;20320;-78
2023/05/23 13:25:33;;;;;;;9.95;5.13;;;;;;;;;;7364479;19;20029;-80
2023/05/23 13:28:00;;;;;;;10.27;4.95;;;;;;;;;;7360105;19;20019;-80
2023/05/23 13:30:25;;;;;;;10.63;4.93;;;;;;;;;;7370420;19;20026;-78
2023/05/23 13:32:50;;;;;;;9.73;4.97;;;;;;;;;;7374000;19;19994;-78
2023/05/23 13:35:15;;;;;;;7.57;4.77;;;;;;;;;;7376587;19;20099;-78
2023/05/23 13:37:40;;;;;;;9.87;4.43;;;;;;;;;;7372001;19;19998;-80
2023/05/23 13:40:06;;;;;;;11.17;5.13;;;;;;;;;;7370254;19;20243;-80
2023/05/23 13:42:31;;;;;;;10.48;5.57;;;;;;;;;;7376077;19;20766;-80
2023/05/23 13:44:57;;;;;;;11.05;5.57;;;;;;;;;;7373286;19;20009;-79
2023/05/23 13:47:22;;;;;;;11.20;4.80;;;;;;;;;;7375631;19;20006;-79
2023/05/23 13:49:47;;;;;;;11.33;5.50;;;;;;;;;;7374171;19;20014;-80
2023/05/23 13:52:12;;;;;;;11.70;5.53;;;;;;;;;;7376653;19;19991;-79
2023/05/23 13:54:37;;;;;;;10.13;5.35;;;;;;;;;;7374711;19;20026;-80
2023/05/23 13:57:03;;;;;;;12.50;5.90;;;;;;;;;;7368642;19;20086;-79
2023/05/23 13:59:28;;;;;;;14.60;6.60;;;;;;;;;;7375984;19;20019;-77
2023/05/23 14:01:54;;;;;;;13.30;6.75;;;;;;;;;;7372962;19;20016;-80
2023/05/23 14:04:19;;;;;;;13.18;6.85;;;;;;;;;;7375092;19;20002;-80
2023/05/23 14:06:44;;;;;;;14.90;8.00;;;;;;;;;;7370138;19;20009;-80
2023/05/23 14:09:10;;;;;;;18.38;7.38;;;;;;;;;;7376740;19;19999;-79
2023/05/23 14:11:35;;;;;;;16.08;7.40;;;;;;;;;;7368151;19;20468;-79
2023/05/23 14:14:00;;;;;;;17.92;7.43;;;;;;;;;;7371878;19;20009;-80
2023/05/23 14:16:25;;;;;;;11.40;7.17;;;;;;;;;;7375256;19;20610;-78
2023/05/23 14:18:50;;;;;;;15.30;8.00;;;;;;;;;;7369285;19;20364;-79
2023/05/23 14:21:16;;;;;;;16.60;7.70;;;;;;;;;;7363259;19;20716;-80
2023/05/23 14:23:41;;;;;;;16.65;8.57;;;;;;;;;;7358208;19;20968;-81
2023/05/23 14:26:06;;;;;;;16.85;8.35;;;;;;;;;;7349775;19;19999;-78
2023/05/23 14:28:31;;;;;;;15.23;7.97;;;;;;;;;;7365442;19;20007;-78
2023/05/23 14:30:57;;;;;;;15.33;8.60;;;;;;;;;;7368690;19;20002;-80
2023/05/23 14:33:23;;;;;;;15.98;7.72;;;;;;;;;;7371038;19;20559;-76
2023/05/23 14:35:48;;;;;;;13.67;7.30;;;;;;;;;;7364470;19;20272;-78
2023/05/23 14:38:13;;;;;;;18.83;8.13;;;;;;;;;;7372742;19;20264;-80
2023/05/23 14:40:38;;;;;;;15.50;7.60;;;;;;;;;;7360617;19;20223;-76
2023/05/23 14:43:04;;;;;;;12.70;7.13;;;;;;;;;;7369622;19;20011;-79
2023/05/23 14:45:29;;;;;;;15.35;7.57;;;;;;;;;;7367968;19;20365;-76
2023/05/23 14:47:54;;;;;;;13.02;7.00;;;;;;;;;;7365335;19;20084;-77
2023/05/23 14:50:19;;;;;;;12.63;7.23;;;;;;;;;;7362790;19;20193;-79
2023/05/23 14:52:45;;;;;;;13.88;6.63;;;;;;;;;;7364544;19;20034;-81
2023/05/23 14:55:10;;;;;;;14.27;6.25;;;;;;;;;;7365816;19;20003;-77
2023/05/23 14:57:35;;;;;;;11.75;6.15;;;;;;;;;;7372267;19;20007;-79
2023/05/23 15:00:04;;;;;;;11.85;6.50;;;;;;;;;;7370423;19;20025;-79
2023/05/23 15:02:29;;;;;;;14.60;6.35;;;;;;;;;;7373596;19;20018;-79
2023/05/23 15:04:55;;;;;;;11.77;6.38;;;;;;;;;;7371632;19;20010;-76
2023/05/23 15:07:20;;;;;;;14.67;6.63;;;;;;;;;;7354359;19;20011;-79
2023/05/23 15:09:46;;;;;;;13.90;5.50;;;;;;;;;;7368094;19;20282;-82
2023/05/23 15:12:13;;;;;;;12.45;5.57;;;;;;;;;;7374447;19;20034;-79
2023/05/23 15:14:39;;;;;;;10.90;5.93;;;;;;;;;;7376388;19;20006;-80
2023/05/23 15:17:06;;;;;;;15.43;6.07;;;;;;;;;;7355062;19;20400;-79
2023/05/23 15:19:33;;;;;;;15.75;5.65;;;;;;;;;;7369143;19;19999;-77
2023/05/23 15:21:58;;;;;;;12.13;5.85;;;;;;;;;;7366976;19;20026;-79
2023/05/23 15:24:23;;;;;;;11.13;5.87;;;;;;;;;;7369656;19;20103;-79
2023/05/23 15:26:48;;;;;;;13.57;5.73;;;;;;;;;;7363110;19;20248;-79
2023/05/23 15:29:16;;;;;;;12.05;6.25;;;;;;;;;;7369447;19;20014;-78
2023/05/23 15:31:43;;;;;;;11.48;5.45;;;;;;;;;;7365367;19;20452;-79
2023/05/23 15:34:08;;;;;;;14.45;5.22;;;;;;;;;;7363687;19;20027;-80
2023/05/23 15:36:33;;;;;;;15.27;5.90;;;;;;;;;;7361954;19;20540;-79
2023/05/23 15:38:58;;;;;;;9.60;4.73;;;;;;;;;;7362127;19;20259;-76
2023/05/23 15:41:23;;;;;;;14.67;5.73;;;;;;;;;;7366161;19;20247;-79
2023/05/23 15:43:48;;;;;;;10.93;5.47;;;;;;;;;;7367343;19;20431;-79
2023/05/23 15:46:13;;;;;;;10.77;4.97;;;;;;;;;;7368735;19;20002;-77
2023/05/23 15:48:39;;;;;;;10.43;5.00;;;;;;;;;;7364011;19;20669;-80
2023/05/23 15:51:04;;;;;;;12.30;4.93;;;;;;;;;;7368817;19;20074;-78
2023/05/23 15:53:30;;;;;;;12.27;4.78;;;;;;;;;;7368810;19;19998;-78
2023/05/23 15:55:55;;;;;;;11.45;5.05;;;;;;;;;;7363365;19;20361;-81
2023/05/23 15:58:20;;;;;;;12.32;5.03;;;;;;;;;;7363786;19;20029;-78
2023/05/23 16:00:45;;;;;;;11.87;4.93;;;;;;;;;;7370394;19;20045;-79
2023/05/23 16:03:10;;;;;;;14.93;5.07;;;;;;;;;;7368433;19;19998;-77
2023/05/23 16:05:35;;;;;;;13.80;4.55;;;;;;;;;;7370379;19;20002;-78
2023/05/23 16:08:01;;;;;;;13.23;4.77;;;;;;;;;;7362862;19;20347;-79
2023/05/23 16:10:26;;;;;;;12.60;4.47;;;;;;;;;;7367051;19;20099;-77
2023/05/23 16:12:51;;;;;;;9.10;4.00;;;;;;;;;;7368735;19;20399;-78
2023/05/23 16:15:16;;;;;;;15.90;5.35;;;;;;;;;;7370801;19;20018;-78
2023/05/23 16:17:41;;;;;;;14.93;5.13;;;;;;;;;;7369709;19;20281;-76
2023/05/23 16:20:07;;;;;;;15.67;5.60;;;;;;;;;;7366563;19;20260;-77
2023/05/23 16:22:32;;;;;;;10.98;4.65;;;;;;;;;;7372347;19;19994;-78
2023/05/23 16:24:57;;;;;;;12.00;4.78;;;;;;;;;;7365307;19;20317;-78
2023/05/23 16:27:23;;;;;;;15.63;4.60;;;;;;;;;;7367101;19;20011;-77
2023/05/23 16:29:48;;;;;;;15.32;4.80;;;;;;;;;;7367699;19;20764;-80
2023/05/23 16:32:14;;;;;;;14.68;4.85;;;;;;;;;;7365037;19;20107;-78
2023/05/23 16:34:39;;;;;;;16.48;5.18;;;;;;;;;;7364009;19;20038;-77
2023/05/23 16:37:04;;;;;;;15.55;5.18;;;;;;;;;;7364637;19;19994;-77
2023/05/23 16:39:30;;;;;;;13.70;4.95;;;;;;;;;;7364082;19;20300;-78
2023/05/23 16:41:55;;;;;;;15.27;4.82;;;;;;;;;;7366780;19;20235;-77
2023/05/23 16:44:20;;;;;;;11.23;4.57;;;;;;;;;;7368855;19;20003;-78
2023/05/23 16:46:45;;;;;;;17.93;6.93;;;;;;;;;;7368079;19;20247;-77
2023/05/23 16:49:10;;;;;;;14.57;4.50;;;;;;;;;;7366474;19;20239;-76
2023/05/23 16:51:36;;;;;;;11.90;4.43;;;;;;;;;;7365414;19;20091;-76
2023/05/23 16:54:01;;;;;;;19.30;9.25;;;;;;;;;;7368270;19;20792;-76
2023/05/23 16:56:26;;;;;;;12.07;4.87;;;;;;;;;;7367196;19;20114;-78
2023/05/23 16:58:51;;;;;;;14.40;3.97;;;;;;;;;;7368482;19;20408;-77
2023/05/23 17:01:18;;;;;;;16.38;5.13;;;;;;;;;;7368305;19;20073;-77
2023/05/23 17:03:43;;;;;;;13.20;4.82;;;;;;;;;;7371763;19;20018;-78
2023/05/23 17:06:09;;;;;;;13.05;4.20;;;;;;;;;;7356401;19;20007;-80
2023/05/23 17:08:34;;;;;;;19.63;5.35;;;;;;;;;;7375955;19;20009;-83
2023/05/23 17:10:59;;;;;;;16.52;5.22;;;;;;;;;;7372182;19;20798;-81
2023/05/23 17:13:24;;;;;;;14.47;4.47;;;;;;;;;;7373163;19;20312;-81
2023/05/23 17:15:50;;;;;;;15.13;4.88;;;;;;;;;;7369250;19;20235;-81
2023/05/23 17:18:16;;;;;;;15.70;5.10;;;;;;;;;;7378689;19;20034;-78
2023/05/23 17:20:41;;;;;;;15.13;4.80;;;;;;;;;;7378528;19;20030;-80
2023/05/23 17:23:06;;;;;;;12.10;4.22;;;;;;;;;;7377006;19;20356;-78
2023/05/23 17:25:31;;;;;;;17.60;5.10;;;;;;;;;;7361130;19;20447;-79
2023/05/23 17:27:56;;;;;;;17.38;5.50;;;;;;;;;;7369959;19;20255;-81
2023/05/23 17:30:22;;;;;;;11.63;4.50;;;;;;;;;;7383576;19;20009;-76
2023/05/23 17:32:47;;;;;;;19.17;5.43;;;;;;;;;;7383676;19;19995;-79
2023/05/23 17:35:12;;;;;;;14.60;5.00;;;;;;;;;;7379108;19;20020;-82
2023/05/23 17:37:37;;;;;;;16.95;4.93;;;;;;;;;;7382281;19;20017;-78
2023/05/23 17:40:05;;;;;;;14.70;4.72;;;;;;;;;;7373791;19;20015;-77
2023/05/23 17:42:30;;;;;;;12.00;5.03;;;;;;;;;;7386841;19;20042;-78
2023/05/23 17:44:55;;;;;;;15.85;5.00;;;;;;;;;;7383907;19;20066;-78
2023/05/23 17:47:20;;;;;;;13.83;5.07;;;;;;;;;;7382478;19;19999;-80
2023/05/23 17:49:46;;;;;;;19.70;4.87;;;;;;;;;;7383354;19;20256;-79
2023/05/23 17:52:13;;;;;;;17.95;5.43;;;;;;;;;;7382307;19;20248;-77
2023/05/23 17:54:38;;;;;;;19.83;5.45;;;;;;;;;;7380143;19;20389;-79
2023/05/23 17:57:04;;;;;;;15.25;5.55;;;;;;;;;;7380981;19;20034;-78
2023/05/23 17:59:31;;;;;;;18.33;5.90;;;;;;;;;;7381758;19;20356;-81
2023/05/23 18:01:56;;;;;;;17.98;5.07;;;;;;;;;;7376859;19;20023;-83
2023/05/23 18:04:23;;;;;;;17.88;5.45;;;;;;;;;;7385483;19;20451;-77
2023/05/23 18:06:48;;;;;;;15.07;5.35;;;;;;;;;;7382257;19;20058;-79
2023/05/23 18:09:13;;;;;;;15.90;5.30;;;;;;;;;;7384190;19;20019;-81
2023/05/23 18:11:38;;;;;;;14.17;4.90;;;;;;;;;;7381854;19;20023;-77
2023/05/23 18:14:04;;;;;;;18.70;5.60;;;;;;;;;;7378038;19;20303;-79
2023/05/23 18:16:29;;;;;;;17.25;5.22;;;;;;;;;;7381078;19;19995;-80
2023/05/23 18:18:56;;;;;;;20.58;5.47;;;;;;;;;;7383384;19;20038;-79
2023/05/23 18:21:21;;;;;;;19.33;5.93;;;;;;;;;;7383798;19;20003;-78
2023/05/23 18:23:46;;;;;;;16.42;5.60;;;;;;;;;;7384619;19;20021;-77
2023/05/23 18:26:12;;;;;;;17.38;5.85;;;;;;;;;;7379691;19;20439;-78
2023/05/23 18:28:37;;;;;;;20.85;5.88;;;;;;;;;;7380281;19;20002;-78
2023/05/23 18:31:02;;;;;;;21.47;6.30;;;;;;;;;;7383370;19;20431;-81
2023/05/23 18:33:27;;;;;;;17.77;5.25;;;;;;;;;;7381556;19;20001;-77
2023/05/23 18:35:53;;;;;;;19.07;5.57;;;;;;;;;;7379899;19;20002;-80
2023/05/23 18:38:18;;;;;;;18.65;5.75;;;;;;;;;;7381805;19;20432;-77
2023/05/23 18:40:43;;;;;;;14.67;4.67;;;;;;;;;;7381567;19;20010;-77
2023/05/23 18:43:08;;;;;;;18.35;5.18;;;;;;;;;;7371290;19;20003;-78
2023/05/23 18:45:35;;;;;;;21.80;5.47;;;;;;;;;;7376880;19;20039;-77
2023/05/23 18:48:00;;;;;;;15.10;4.97;;;;;;;;;;7380952;19;20256;-79
2023/05/23 18:50:25;;;;;;;20.60;5.77;;;;;;;;;;7381956;19;19994;-76
2023/05/23 18:52:51;;;;;;;21.13;4.93;;;;;;;;;;7383710;19;20014;-78
2023/05/23 18:55:16;;;;;;;20.30;5.40;;;;;;;;;;7379084;19;19998;-76
2023/05/23 18:57:41;;;;;;;18.70;5.05;;;;;;;;;;7383150;19;20003;-77
2023/05/23 19:00:07;;;;;;;17.88;5.25;;;;;;;;;;7382923;19;19995;-80
2023/05/23 19:02:33;;;;;;;20.23;5.50;;;;;;;;;;7383432;19;20347;-79
2023/05/23 19:04:58;;;;;;;17.90;5.63;;;;;;;;;;7381037;19;19997;-78
2023/05/23 19:07:23;;;;;;;21.83;5.37;;;;;;;;;;7378233;19;20270;-78
2023/05/23 19:09:48;;;;;;;20.30;5.40;;;;;;;;;;7378752;19;20576;-78
2023/05/23 19:12:13;;;;;;;23.58;6.43;;;;;;;;;;7378820;19;20786;-78
2023/05/23 19:14:38;;;;;;;19.10;5.27;;;;;;;;;;7383031;19;19998;-78
2023/05/23 19:17:06;;;;;;;20.57;5.20;;;;;;;;;;7362760;19;20002;-78
2023/05/23 19:19:33;;;;;;;19.75;5.20;;;;;;;;;;7377494;19;20252;-79
2023/05/23 19:21:59;;;;;;;19.48;4.80;;;;;;;;;;7378984;19;19994;-78
2023/05/23 19:24:25;;;;;;;28.27;5.82;;;;;;;;;;7378764;19;20018;-78
2023/05/23 19:26:50;;;;;;;22.70;6.53;;;;;;;;;;7377841;19;20278;-78
2023/05/23 19:29:15;;;;;;;19.87;5.20;;;;;;;;;;7375842;19;20023;-79
2023/05/23 19:31:41;;;;;;;18.05;5.28;;;;;;;;;;7378621;19;20006;-77
2023/05/23 19:34:06;;;;;;;20.58;5.40;;;;;;;;;;7377220;19;20107;-80
2023/05/23 19:36:31;;;;;;;24.42;5.60;;;;;;;;;;7374049;19;20007;-78
2023/05/23 19:38:57;;;;;;;18.05;5.20;;;;;;;;;;7378785;19;20018;-78
2023/05/23 19:41:22;;;;;;;25.23;5.35;;;;;;;;;;7374523;19;20018;-77
2023/05/23 19:43:47;;;;;;;21.63;5.53;;;;;;;;;;7383463;19;20018;-80
2023/05/23 19:46:14;;;;;;;18.53;5.70;;;;;;;;;;7377375;19;20011;-77
2023/05/23 19:48:39;;;;;;;23.08;5.60;;;;;;;;;;7380501;19;20798;-78
2023/05/23 19:51:04;;;;;;;20.70;6.00;;;;;;;;;;7378030;19;20032;-78
2023/05/23 19:53:29;;;;;;;23.60;5.82;;;;;;;;;;7368007;19;20055;-82
2023/05/23 19:55:55;;;;;;;21.42;5.18;;;;;;;;;;7378031;19;20025;-79
2023/05/23 19:58:20;;;;;;;21.85;4.93;;;;;;;;;;7367546;19;19998;-81
2023/05/23 20:00:45;;;;;;;21.73;5.97;;;;;;;;;;7375803;19;20006;-80
2023/05/23 20:03:11;;;;;;;21.53;5.60;;;;;;;;;;7349122;19;20334;-81
2023/05/23 20:05:36;;;;;;;18.45;5.70;;;;;;;;;;7359688;19;20561;-81
2023/05/23 20:08:01;;;;;;;21.58;5.25;;;;;;;;;;7369689;19;20217;-78
2023/05/23 20:10:26;;;;;;;21.30;5.75;;;;;;;;;;7366259;19;19995;-79
2023/05/23 20:12:52;;;;;;;21.23;5.23;;;;;;;;;;7376164;19;19999;-79
2023/05/23 20:15:17;;;;;;;20.85;5.75;;;;;;;;;;7369528;19;20290;-80
2023/05/23 20:17:42;;;;;;;20.20;6.47;;;;;;;;;;7372232;19;20101;-81
2023/05/23 20:20:07;;;;;;;18.17;5.63;;;;;;;;;;7377588;19;20774;-80
2023/05/23 20:22:32;;;;;;;17.88;5.15;;;;;;;;;;7363079;19;20003;-82
2023/05/23 20:24:58;;;;;;;18.25;5.30;;;;;;;;;;7370628;19;19998;-78
2023/05/23 20:27:23;;;;;;;23.55;5.20;;;;;;;;;;7374236;19;20011;-78
2023/05/23 20:29:49;;;;;;;18.40;4.97;;;;;;;;;;7367281;19;20610;-79
2023/05/23 20:32:15;;;;;;;21.45;6.85;;;;;;;;;;7370189;19;20171;-82
2023/05/23 20:34:40;;;;;;;18.60;5.60;;;;;;;;;;7371423;19;20592;-81
2023/05/23 20:37:05;;;;;;;17.23;4.90;;;;;;;;;;7369224;19;20363;-80
2023/05/23 20:39:30;;;;;;;15.82;5.05;;;;;;;;;;7371041;19;20301;-82
2023/05/23 20:41:55;;;;;;;20.65;6.13;;;;;;;;;;7383068;19;20466;-80
2023/05/23 20:44:21;;;;;;;16.42;4.72;;;;;;;;;;7382081;19;20003;-80
2023/05/23 20:46:46;;;;;;;23.50;6.10;;;;;;;;;;7383813;19;19994;-79
2023/05/23 20:49:11;;;;;;;20.30;5.27;;;;;;;;;;7382238;19;20050;-79
2023/05/23 20:51:37;;;;;;;22.35;5.20;;;;;;;;;;7379183;19;20268;-79
2023/05/23 20:54:04;;;;;;;19.73;5.15;;;;;;;;;;7382561;19;20352;-79
2023/05/23 20:56:29;;;;;;;21.50;5.50;;;;;;;;;;7377639;19;20338;-78
2023/05/23 20:58:56;;;;;;;16.35;4.75;;;;;;;;;;7386127;19;20010;-77
2023/05/23 21:01:21;;;;;;;20.48;4.88;;;;;;;;;;7373902;19;20006;-82
2023/05/23 21:03:47;;;;;;;20.25;5.03;;;;;;;;;;7377320;19;20043;-79
2023/05/23 21:06:12;;;;;;;19.38;4.88;;;;;;;;;;7374862;19;19998;-79
2023/05/23 21:08:37;;;;;;;20.65;5.38;;;;;;;;;;7354787;19;20003;-80
2023/05/23 21:11:02;;;;;;;19.37;5.67;;;;;;;;;;7356661;19;20006;-78
2023/05/23 21:13:27;;;;;;;18.07;4.60;;;;;;;;;;7368491;19;21096;-79
2023/05/23 21:15:52;;;;;;;20.93;5.87;;;;;;;;;;7369999;19;20256;-80
2023/05/23 21:18:17;;;;;;;19.17;4.90;;;;;;;;;;7368389;19;20375;-79
2023/05/23 21:20:43;;;;;;;22.23;5.47;;;;;;;;;;7370294;19;20018;-80
2023/05/23 21:23:08;;;;;;;20.17;4.60;;;;;;;;;;7357213;19;20606;-82
2023/05/23 21:25:33;;;;;;;20.50;5.82;;;;;;;;;;7348751;19;20255;-79
2023/05/23 21:27:58;;;;;;;19.55;5.60;;;;;;;;;;7364815;19;20042;-79
2023/05/23 21:30:23;;;;;;;19.63;4.73;;;;;;;;;;7367681;19;20489;-80
2023/05/23 21:32:49;;;;;;;23.77;6.15;;;;;;;;;;7362151;19;20236;-80
2023/05/23 21:35:14;;;;;;;19.08;4.88;;;;;;;;;;7367086;19;20340;-80
2023/05/23 21:37:39;;;;;;;15.88;4.63;;;;;;;;;;7375980;19;20018;-80
2023/05/23 21:40:05;;;;;;;19.37;5.43;;;;;;;;;;7372052;19;20001;-79
2023/05/23 21:42:30;;;;;;;20.02;4.90;;;;;;;;;;7373340;19;20672;-80
2023/05/23 21:44:55;;;;;;;23.07;5.90;;;;;;;;;;7371021;19;20451;-80
2023/05/23 21:47:23;;;;;;;19.60;5.50;;;;;;;;;;7367880;19;20014;-80
2023/05/23 21:49:48;;;;;;;17.30;5.07;;;;;;;;;;7359351;19;20361;-79
2023/05/23 21:52:13;;;;;;;20.60;5.22;;;;;;;;;;7365849;19;20002;-79
2023/05/23 21:54:38;;;;;;;17.30;5.32;;;;;;;;;;7372875;19;20010;-79
2023/05/23 21:57:04;;;;;;;20.07;5.20;;;;;;;;;;7377333;19;20019;-78
2023/05/23 21:59:29;;;;;;;18.58;5.20;;;;;;;;;;7374919;19;20267;-79
2023/05/23 22:01:54;;;;;;;17.08;4.65;;;;;;;;;;7333127;19;20010;-79
2023/05/23 22:04:20;;;;;;;17.08;5.45;;;;;;;;;;7355769;19;20003;-81
